sensor_id;sensor_type;location;lat;lon;timestamp;P1;durP1;ratioP1;P2;durP2;ratioP2
11957;SDS011;6039;52.576;13.348;2023-11-19T00:04:20;9.13;;;6.03;;
11957;SDS011;6039;52.576;13.348;2023-11-19T00:09:27;9.50;;;5.90;;
11957;SDS011;6039;52.576;13.348;2023-11-19T00:14:31;10.90;;;5.97;;
11957;SDS011;6039;52.576;13.348;2023-11-19T00:19:35;8.37;;;5.73;;
11957;SDS011;6039;52.576;13.348;2023-11-19T00:24:42;9.37;;;5.57;;
11957;SDS011;6039;52.576;13.348;2023-11-19T00:29:46;7.57;;;5.47;;
11957;SDS011;6039;52.576;13.348;2023-11-19T00:34:50;7.60;;;5.27;;
11957;SDS011;6039;52.576;13.348;2023-11-19T00:39:56;8.83;;;5.13;;
11957;SDS011;6039;52.576;13.348;2023-11-19T00:45:01;7.07;;;4.93;;
11957;SDS011;6039;52.576;13.348;2023-11-19T00:50:08;7.87;;;5.43;;
11957;SDS011;6039;52.576;13.348;2023-11-19T00:55:15;8.20;;;5.20;;
11957;SDS011;6039;52.576;13.348;2023-11-19T01:00:19;7.10;;;5.00;;
11957;SDS011;6039;52.576;13.348;2023-11-19T01:05:27;6.77;;;4.87;;
11957;SDS011;6039;52.576;13.348;2023-11-19T01:10:33;8.47;;;5.13;;
11957;SDS011;6039;52.576;13.348;2023-11-19T01:15:39;8.97;;;5.50;;
11957;SDS011;6039;52.576;13.348;2023-11-19T01:20:43;8.47;;;5.23;;
11957;SDS011;6039;52.576;13.348;2023-11-19T01:25:50;7.70;;;4.70;;
11957;SDS011;6039;52.576;13.348;2023-11-19T01:30:54;6.30;;;4.57;;
11957;SDS011;6039;52.576;13.348;2023-11-19T01:35:58;6.87;;;4.87;;
11957;SDS011;6039;52.576;13.348;2023-11-19T01:41:04;10.07;;;4.77;;
11957;SDS011;6039;52.576;13.348;2023-11-19T01:46:09;7.33;;;4.70;;
11957;SDS011;6039;52.576;13.348;2023-11-19T01:51:13;7.27;;;4.97;;
11957;SDS011;6039;52.576;13.348;2023-11-19T01:56:20;7.20;;;4.47;;
11957;SDS011;6039;52.576;13.348;2023-11-19T02:01:25;8.27;;;4.77;;
11957;SDS011;6039;52.576;13.348;2023-11-19T02:06:29;7.37;;;5.20;;
11957;SDS011;6039;52.576;13.348;2023-11-19T02:11:38;7.53;;;4.53;;
11957;SDS011;6039;52.576;13.348;2023-11-19T02:16:43;6.47;;;4.23;;
11957;SDS011;6039;52.576;13.348;2023-11-19T02:21:47;11.47;;;5.00;;
11957;SDS011;6039;52.576;13.348;2023-11-19T02:26:59;12.60;;;4.67;;
11957;SDS011;6039;52.576;13.348;2023-11-19T02:32:08;7.33;;;4.87;;
11957;SDS011;6039;52.576;13.348;2023-11-19T02:37:13;7.10;;;4.30;;
11957;SDS011;6039;52.576;13.348;2023-11-19T02:42:19;5.93;;;4.33;;
11957;SDS011;6039;52.576;13.348;2023-11-19T02:47:25;7.10;;;4.33;;
11957;SDS011;6039;52.576;13.348;2023-11-19T02:52:30;5.77;;;3.93;;
11957;SDS011;6039;52.576;13.348;2023-11-19T02:57:37;6.87;;;4.33;;
11957;SDS011;6039;52.576;13.348;2023-11-19T03:02:49;6.80;;;4.03;;
11957;SDS011;6039;52.576;13.348;2023-11-19T03:07:58;7.70;;;3.80;;
11957;SDS011;6039;52.576;13.348;2023-11-19T03:13:03;6.23;;;4.03;;
11957;SDS011;6039;52.576;13.348;2023-11-19T03:18:10;5.50;;;3.57;;
11957;SDS011;6039;52.576;13.348;2023-11-19T03:23:14;4.77;;;3.30;;
11957;SDS011;6039;52.576;13.348;2023-11-19T03:28:18;5.60;;;3.67;;
11957;SDS011;6039;52.576;13.348;2023-11-19T03:33:25;5.57;;;3.90;;
11957;SDS011;6039;52.576;13.348;2023-11-19T03:38:29;6.47;;;3.97;;
11957;SDS011;6039;52.576;13.348;2023-11-19T03:43:33;5.20;;;3.60;;
11957;SDS011;6039;52.576;13.348;2023-11-19T03:48:40;6.37;;;3.93;;
11957;SDS011;6039;52.576;13.348;2023-11-19T03:53:44;6.77;;;4.60;;
11957;SDS011;6039;52.576;13.348;2023-11-19T03:58:48;6.03;;;4.27;;
11957;SDS011;6039;52.576;13.348;2023-11-19T04:03:55;7.13;;;4.23;;
11957;SDS011;6039;52.576;13.348;2023-11-19T04:08:59;7.70;;;4.83;;
11957;SDS011;6039;52.576;13.348;2023-11-19T04:14:03;6.47;;;4.67;;
11957;SDS011;6039;52.576;13.348;2023-11-19T04:19:10;7.33;;;4.17;;
11957;SDS011;6039;52.576;13.348;2023-11-19T04:24:14;6.70;;;4.23;;
11957;SDS011;6039;52.576;13.348;2023-11-19T04:29:19;7.07;;;4.37;;
11957;SDS011;6039;52.576;13.348;2023-11-19T04:34:25;7.47;;;4.67;;
11957;SDS011;6039;52.576;13.348;2023-11-19T04:39:29;7.90;;;4.67;;
11957;SDS011;6039;52.576;13.348;2023-11-19T04:44:33;8.67;;;5.00;;
11957;SDS011;6039;52.576;13.348;2023-11-19T04:49:42;7.53;;;4.57;;
11957;SDS011;6039;52.576;13.348;2023-11-19T04:54:46;8.70;;;4.73;;
11957;SDS011;6039;52.576;13.348;2023-11-19T04:59:50;7.30;;;4.73;;
11957;SDS011;6039;52.576;13.348;2023-11-19T05:04:56;9.07;;;4.70;;
11957;SDS011;6039;52.576;13.348;2023-11-19T05:10:00;8.00;;;4.90;;
11957;SDS011;6039;52.576;13.348;2023-11-19T05:15:06;7.13;;;4.20;;
11957;SDS011;6039;52.576;13.348;2023-11-19T05:20:14;7.57;;;4.80;;
11957;SDS011;6039;52.576;13.348;2023-11-19T05:25:18;8.80;;;4.53;;
11957;SDS011;6039;52.576;13.348;2023-11-19T05:30:22;7.63;;;4.57;;
11957;SDS011;6039;52.576;13.348;2023-11-19T05:35:29;7.57;;;4.77;;
11957;SDS011;6039;52.576;13.348;2023-11-19T05:40:33;7.23;;;4.23;;
11957;SDS011;6039;52.576;13.348;2023-11-19T05:45:38;7.47;;;4.40;;
11957;SDS011;6039;52.576;13.348;2023-11-19T05:50:45;7.70;;;4.80;;
11957;SDS011;6039;52.576;13.348;2023-11-19T05:55:49;6.40;;;4.03;;
11957;SDS011;6039;52.576;13.348;2023-11-19T06:00:57;6.27;;;4.10;;
11957;SDS011;6039;52.576;13.348;2023-11-19T06:06:06;7.57;;;4.80;;
11957;SDS011;6039;52.576;13.348;2023-11-19T06:11:11;6.83;;;5.00;;
11957;SDS011;6039;52.576;13.348;2023-11-19T06:16:18;8.13;;;4.83;;
11957;SDS011;6039;52.576;13.348;2023-11-19T06:21:24;7.47;;;4.83;;
11957;SDS011;6039;52.576;13.348;2023-11-19T06:26:28;7.43;;;4.57;;
11957;SDS011;6039;52.576;13.348;2023-11-19T06:31:32;8.00;;;4.63;;
11957;SDS011;6039;52.576;13.348;2023-11-19T06:36:39;7.57;;;4.87;;
11957;SDS011;6039;52.576;13.348;2023-11-19T06:41:44;7.53;;;4.93;;
11957;SDS011;6039;52.576;13.348;2023-11-19T06:46:49;7.53;;;4.83;;
11957;SDS011;6039;52.576;13.348;2023-11-19T06:51:56;7.10;;;4.80;;
11957;SDS011;6039;52.576;13.348;2023-11-19T06:57:01;6.73;;;4.40;;
11957;SDS011;6039;52.576;13.348;2023-11-19T07:02:05;5.67;;;4.00;;
11957;SDS011;6039;52.576;13.348;2023-11-19T07:07:12;5.83;;;4.13;;
11957;SDS011;6039;52.576;13.348;2023-11-19T07:12:17;5.53;;;3.90;;
11957;SDS011;6039;52.576;13.348;2023-11-19T07:17:21;6.30;;;4.37;;
11957;SDS011;6039;52.576;13.348;2023-11-19T07:22:27;4.87;;;3.63;;
11957;SDS011;6039;52.576;13.348;2023-11-19T07:27:32;5.77;;;3.93;;
11957;SDS011;6039;52.576;13.348;2023-11-19T07:32:36;8.43;;;4.27;;
11957;SDS011;6039;52.576;13.348;2023-11-19T07:37:43;6.33;;;4.10;;
11957;SDS011;6039;52.576;13.348;2023-11-19T07:42:47;5.93;;;4.03;;
11957;SDS011;6039;52.576;13.348;2023-11-19T07:47:52;6.33;;;4.23;;
11957;SDS011;6039;52.576;13.348;2023-11-19T07:52:58;7.07;;;4.60;;
11957;SDS011;6039;52.576;13.348;2023-11-19T07:58:04;6.97;;;4.50;;
11957;SDS011;6039;52.576;13.348;2023-11-19T08:03:08;5.53;;;4.17;;
11957;SDS011;6039;52.576;13.348;2023-11-19T08:08:15;7.60;;;5.03;;
11957;SDS011;6039;52.576;13.348;2023-11-19T08:13:19;7.23;;;4.57;;
11957;SDS011;6039;52.576;13.348;2023-11-19T08:18:23;9.23;;;5.33;;
11957;SDS011;6039;52.576;13.348;2023-11-19T08:23:30;6.37;;;4.30;;
11957;SDS011;6039;52.576;13.348;2023-11-19T08:28:34;6.43;;;4.53;;
11957;SDS011;6039;52.576;13.348;2023-11-19T08:33:38;7.80;;;5.13;;
11957;SDS011;6039;52.576;13.348;2023-11-19T08:38:44;7.17;;;4.60;;
11957;SDS011;6039;52.576;13.348;2023-11-19T08:43:48;6.87;;;4.60;;
11957;SDS011;6039;52.576;13.348;2023-11-19T08:48:52;6.83;;;4.70;;
11957;SDS011;6039;52.576;13.348;2023-11-19T08:54:00;7.80;;;5.30;;
11957;SDS011;6039;52.576;13.348;2023-11-19T08:59:04;6.50;;;4.97;;
11957;SDS011;6039;52.576;13.348;2023-11-19T09:04:08;8.73;;;5.90;;
11957;SDS011;6039;52.576;13.348;2023-11-19T09:09:16;7.30;;;4.93;;
11957;SDS011;6039;52.576;13.348;2023-11-19T09:14:20;6.10;;;4.43;;
11957;SDS011;6039;52.576;13.348;2023-11-19T09:19:26;7.87;;;4.80;;
11957;SDS011;6039;52.576;13.348;2023-11-19T09:24:32;6.37;;;4.23;;
11957;SDS011;6039;52.576;13.348;2023-11-19T09:29:36;7.83;;;5.50;;
11957;SDS011;6039;52.576;13.348;2023-11-19T09:34:40;7.63;;;5.10;;
11957;SDS011;6039;52.576;13.348;2023-11-19T09:39:47;5.20;;;4.00;;
11957;SDS011;6039;52.576;13.348;2023-11-19T09:44:51;6.00;;;4.33;;
11957;SDS011;6039;52.576;13.348;2023-11-19T09:49:55;6.20;;;4.33;;
11957;SDS011;6039;52.576;13.348;2023-11-19T09:55:02;6.77;;;4.27;;
11957;SDS011;6039;52.576;13.348;2023-11-19T10:00:07;6.73;;;3.93;;
11957;SDS011;6039;52.576;13.348;2023-11-19T10:05:13;6.07;;;3.70;;
11957;SDS011;6039;52.576;13.348;2023-11-19T10:10:20;4.63;;;3.20;;
11957;SDS011;6039;52.576;13.348;2023-11-19T10:15:24;5.40;;;2.60;;
11957;SDS011;6039;52.576;13.348;2023-11-19T10:20:32;3.83;;;2.80;;
11957;SDS011;6039;52.576;13.348;2023-11-19T10:25:42;3.83;;;2.63;;
11957;SDS011;6039;52.576;13.348;2023-11-19T10:30:46;7.33;;;2.40;;
11957;SDS011;6039;52.576;13.348;2023-11-19T10:35:56;4.13;;;2.67;;
11957;SDS011;6039;52.576;13.348;2023-11-19T10:41:03;4.30;;;2.80;;
11957;SDS011;6039;52.576;13.348;2023-11-19T10:46:11;6.23;;;2.60;;
11957;SDS011;6039;52.576;13.348;2023-11-19T10:51:21;5.40;;;2.83;;
11957;SDS011;6039;52.576;13.348;2023-11-19T10:56:27;8.43;;;3.07;;
11957;SDS011;6039;52.576;13.348;2023-11-19T11:01:34;6.57;;;3.07;;
11957;SDS011;6039;52.576;13.348;2023-11-19T11:06:42;5.13;;;3.03;;
11957;SDS011;6039;52.576;13.348;2023-11-19T11:11:49;5.73;;;2.80;;
11957;SDS011;6039;52.576;13.348;2023-11-19T11:16:53;11.73;;;3.30;;
11957;SDS011;6039;52.576;13.348;2023-11-19T11:21:58;9.77;;;2.73;;
11957;SDS011;6039;52.576;13.348;2023-11-19T11:27:12;5.13;;;2.67;;
11957;SDS011;6039;52.576;13.348;2023-11-19T11:32:36;3.53;;;2.13;;
11957;SDS011;6039;52.576;13.348;2023-11-19T11:37:44;8.43;;;2.33;;
11957;SDS011;6039;52.576;13.348;2023-11-19T11:42:52;7.63;;;2.43;;
11957;SDS011;6039;52.576;13.348;2023-11-19T11:53:16;7.40;;;3.00;;
11957;SDS011;6039;52.576;13.348;2023-11-19T11:58:28;8.10;;;2.73;;
11957;SDS011;6039;52.576;13.348;2023-11-19T12:03:38;8.43;;;2.77;;
11957;SDS011;6039;52.576;13.348;2023-11-19T12:08:42;8.23;;;2.70;;
11957;SDS011;6039;52.576;13.348;2023-11-19T12:13:52;9.93;;;3.00;;
11957;SDS011;6039;52.576;13.348;2023-11-19T12:19:02;12.87;;;3.07;;
11957;SDS011;6039;52.576;13.348;2023-11-19T12:24:08;10.47;;;2.77;;
11957;SDS011;6039;52.576;13.348;2023-11-19T12:29:15;8.77;;;3.00;;
11957;SDS011;6039;52.576;13.348;2023-11-19T12:34:19;11.17;;;3.00;;
11957;SDS011;6039;52.576;13.348;2023-11-19T12:39:23;12.70;;;3.47;;
11957;SDS011;6039;52.576;13.348;2023-11-19T12:44:30;11.10;;;3.40;;
11957;SDS011;6039;52.576;13.348;2023-11-19T12:49:34;7.90;;;3.37;;
11957;SDS011;6039;52.576;13.348;2023-11-19T12:54:38;13.33;;;3.10;;
11957;SDS011;6039;52.576;13.348;2023-11-19T12:59:53;12.27;;;3.10;;
11957;SDS011;6039;52.576;13.348;2023-11-19T13:04:58;11.53;;;3.57;;
11957;SDS011;6039;52.576;13.348;2023-11-19T13:10:03;10.17;;;2.93;;
11957;SDS011;6039;52.576;13.348;2023-11-19T13:15:15;6.93;;;2.70;;
11957;SDS011;6039;52.576;13.348;2023-11-19T13:20:26;10.13;;;4.10;;
11957;SDS011;6039;52.576;13.348;2023-11-19T13:25:31;8.33;;;2.80;;
11957;SDS011;6039;52.576;13.348;2023-11-19T13:30:38;7.87;;;2.90;;
11957;SDS011;6039;52.576;13.348;2023-11-19T13:35:42;7.67;;;2.87;;
11957;SDS011;6039;52.576;13.348;2023-11-19T13:40:46;12.20;;;3.03;;
11957;SDS011;6039;52.576;13.348;2023-11-19T13:45:53;11.97;;;2.40;;
11957;SDS011;6039;52.576;13.348;2023-11-19T13:50:58;15.90;;;2.57;;
11957;SDS011;6039;52.576;13.348;2023-11-19T13:56:02;14.57;;;2.90;;
11957;SDS011;6039;52.576;13.348;2023-11-19T14:01:09;11.07;;;3.47;;
11957;SDS011;6039;52.576;13.348;2023-11-19T14:06:13;14.43;;;3.70;;
11957;SDS011;6039;52.576;13.348;2023-11-19T14:11:17;13.00;;;2.93;;
11957;SDS011;6039;52.576;13.348;2023-11-19T14:16:23;9.47;;;3.33;;
11957;SDS011;6039;52.576;13.348;2023-11-19T14:21:29;13.20;;;3.30;;
11957;SDS011;6039;52.576;13.348;2023-11-19T14:26:33;14.63;;;3.90;;
11957;SDS011;6039;52.576;13.348;2023-11-19T14:31:40;10.17;;;3.73;;
11957;SDS011;6039;52.576;13.348;2023-11-19T14:36:44;11.97;;;3.30;;
11957;SDS011;6039;52.576;13.348;2023-11-19T14:41:48;9.53;;;3.07;;
11957;SDS011;6039;52.576;13.348;2023-11-19T14:46:56;15.30;;;3.37;;
11957;SDS011;6039;52.576;13.348;2023-11-19T14:52:02;8.77;;;3.03;;
11957;SDS011;6039;52.576;13.348;2023-11-19T14:57:06;16.13;;;3.33;;
11957;SDS011;6039;52.576;13.348;2023-11-19T15:02:13;10.50;;;3.27;;
11957;SDS011;6039;52.576;13.348;2023-11-19T15:07:17;17.00;;;3.50;;
11957;SDS011;6039;52.576;13.348;2023-11-19T15:12:21;15.60;;;3.43;;
11957;SDS011;6039;52.576;13.348;2023-11-19T15:17:28;16.30;;;3.40;;
11957;SDS011;6039;52.576;13.348;2023-11-19T15:22:32;13.13;;;2.77;;
11957;SDS011;6039;52.576;13.348;2023-11-19T15:27:36;12.00;;;2.83;;
11957;SDS011;6039;52.576;13.348;2023-11-19T15:32:43;8.27;;;2.70;;
11957;SDS011;6039;52.576;13.348;2023-11-19T15:37:47;9.27;;;2.73;;
11957;SDS011;6039;52.576;13.348;2023-11-19T15:42:51;14.83;;;3.70;;
11957;SDS011;6039;52.576;13.348;2023-11-19T15:48:00;11.67;;;2.93;;
11957;SDS011;6039;52.576;13.348;2023-11-19T15:53:04;8.87;;;3.47;;
11957;SDS011;6039;52.576;13.348;2023-11-19T15:58:07;14.93;;;3.90;;
11957;SDS011;6039;52.576;13.348;2023-11-19T16:03:14;12.73;;;4.37;;
11957;SDS011;6039;52.576;13.348;2023-11-19T16:08:18;8.67;;;2.77;;
11957;SDS011;6039;52.576;13.348;2023-11-19T16:13:22;15.07;;;3.77;;
11957;SDS011;6039;52.576;13.348;2023-11-19T16:18:29;13.47;;;3.73;;
11957;SDS011;6039;52.576;13.348;2023-11-19T16:23:33;9.40;;;3.20;;
11957;SDS011;6039;52.576;13.348;2023-11-19T16:28:37;14.40;;;3.70;;
11957;SDS011;6039;52.576;13.348;2023-11-19T16:33:46;11.27;;;3.60;;
11957;SDS011;6039;52.576;13.348;2023-11-19T16:38:50;10.83;;;3.43;;
11957;SDS011;6039;52.576;13.348;2023-11-19T16:43:54;9.97;;;3.50;;
11957;SDS011;6039;52.576;13.348;2023-11-19T16:49:05;12.57;;;3.33;;
11957;SDS011;6039;52.576;13.348;2023-11-19T16:54:09;11.10;;;3.80;;
11957;SDS011;6039;52.576;13.348;2023-11-19T16:59:13;14.87;;;4.40;;
11957;SDS011;6039;52.576;13.348;2023-11-19T17:04:20;17.97;;;4.47;;
11957;SDS011;6039;52.576;13.348;2023-11-19T17:09:27;12.83;;;3.67;;
11957;SDS011;6039;52.576;13.348;2023-11-19T17:14:31;13.93;;;3.63;;
11957;SDS011;6039;52.576;13.348;2023-11-19T17:19:38;9.47;;;4.23;;
11957;SDS011;6039;52.576;13.348;2023-11-19T17:24:42;17.10;;;4.13;;
11957;SDS011;6039;52.576;13.348;2023-11-19T17:29:46;17.43;;;4.40;;
11957;SDS011;6039;52.576;13.348;2023-11-19T17:34:52;8.73;;;3.60;;
11957;SDS011;6039;52.576;13.348;2023-11-19T17:39:56;12.13;;;4.53;;
11957;SDS011;6039;52.576;13.348;2023-11-19T17:45:00;10.27;;;4.33;;
11957;SDS011;6039;52.576;13.348;2023-11-19T17:50:09;10.80;;;3.80;;
11957;SDS011;6039;52.576;13.348;2023-11-19T17:55:13;10.50;;;2.70;;
11957;SDS011;6039;52.576;13.348;2023-11-19T18:00:18;8.33;;;2.43;;
11957;SDS011;6039;52.576;13.348;2023-11-19T18:05:25;11.77;;;2.57;;
11957;SDS011;6039;52.576;13.348;2023-11-19T18:10:29;13.47;;;2.70;;
11957;SDS011;6039;52.576;13.348;2023-11-19T18:15:33;11.73;;;3.30;;
11957;SDS011;6039;52.576;13.348;2023-11-19T18:20:40;10.67;;;3.13;;
11957;SDS011;6039;52.576;13.348;2023-11-19T18:25:43;10.60;;;3.47;;
11957;SDS011;6039;52.576;13.348;2023-11-19T18:30:50;15.60;;;3.30;;
11957;SDS011;6039;52.576;13.348;2023-11-19T18:35:56;8.27;;;2.60;;
11957;SDS011;6039;52.576;13.348;2023-11-19T18:41:00;4.63;;;2.50;;
11957;SDS011;6039;52.576;13.348;2023-11-19T18:46:04;7.10;;;3.17;;
11957;SDS011;6039;52.576;13.348;2023-11-19T18:51:11;7.90;;;2.87;;
11957;SDS011;6039;52.576;13.348;2023-11-19T18:56:16;9.07;;;2.87;;
11957;SDS011;6039;52.576;13.348;2023-11-19T19:01:20;10.03;;;3.00;;
11957;SDS011;6039;52.576;13.348;2023-11-19T19:06:29;13.03;;;3.73;;
11957;SDS011;6039;52.576;13.348;2023-11-19T19:11:33;12.37;;;4.23;;
11957;SDS011;6039;52.576;13.348;2023-11-19T19:16:38;11.27;;;3.70;;
11957;SDS011;6039;52.576;13.348;2023-11-19T19:21:45;11.80;;;4.03;;
11957;SDS011;6039;52.576;13.348;2023-11-19T19:26:49;10.07;;;3.80;;
11957;SDS011;6039;52.576;13.348;2023-11-19T19:31:54;9.07;;;3.90;;
11957;SDS011;6039;52.576;13.348;2023-11-19T19:37:03;11.23;;;3.77;;
11957;SDS011;6039;52.576;13.348;2023-11-19T19:42:07;15.60;;;4.13;;
11957;SDS011;6039;52.576;13.348;2023-11-19T19:47:12;20.87;;;4.17;;
11957;SDS011;6039;52.576;13.348;2023-11-19T19:52:20;9.60;;;3.43;;
11957;SDS011;6039;52.576;13.348;2023-11-19T19:57:24;9.90;;;4.07;;
11957;SDS011;6039;52.576;13.348;2023-11-19T20:02:28;14.07;;;4.27;;
11957;SDS011;6039;52.576;13.348;2023-11-19T20:07:34;16.03;;;3.97;;
11957;SDS011;6039;52.576;13.348;2023-11-19T20:12:38;9.93;;;4.07;;
11957;SDS011;6039;52.576;13.348;2023-11-19T20:17:42;11.30;;;3.83;;
11957;SDS011;6039;52.576;13.348;2023-11-19T20:22:49;11.83;;;4.40;;
11957;SDS011;6039;52.576;13.348;2023-11-19T20:27:53;8.73;;;3.53;;
11957;SDS011;6039;52.576;13.348;2023-11-19T20:32:57;15.17;;;4.07;;
11957;SDS011;6039;52.576;13.348;2023-11-19T20:38:03;12.90;;;4.07;;
11957;SDS011;6039;52.576;13.348;2023-11-19T20:43:07;8.03;;;3.50;;
11957;SDS011;6039;52.576;13.348;2023-11-19T20:48:11;8.30;;;3.23;;
11957;SDS011;6039;52.576;13.348;2023-11-19T20:53:18;10.17;;;3.33;;
11957;SDS011;6039;52.576;13.348;2023-11-19T20:58:22;13.80;;;3.80;;
11957;SDS011;6039;52.576;13.348;2023-11-19T21:03:26;11.63;;;3.53;;
11957;SDS011;6039;52.576;13.348;2023-11-19T21:08:32;9.60;;;3.53;;
11957;SDS011;6039;52.576;13.348;2023-11-19T21:13:36;13.60;;;3.53;;
11957;SDS011;6039;52.576;13.348;2023-11-19T21:18:41;12.73;;;3.70;;
11957;SDS011;6039;52.576;13.348;2023-11-19T21:23:47;14.70;;;3.80;;
11957;SDS011;6039;52.576;13.348;2023-11-19T21:28:52;13.03;;;3.30;;
11957;SDS011;6039;52.576;13.348;2023-11-19T21:33:56;12.97;;;3.53;;
11957;SDS011;6039;52.576;13.348;2023-11-19T21:39:02;13.00;;;3.57;;
11957;SDS011;6039;52.576;13.348;2023-11-19T21:44:09;9.87;;;2.97;;
11957;SDS011;6039;52.576;13.348;2023-11-19T21:49:13;9.87;;;3.33;;
11957;SDS011;6039;52.576;13.348;2023-11-19T21:54:19;7.83;;;3.20;;
11957;SDS011;6039;52.576;13.348;2023-11-19T21:59:23;9.10;;;3.00;;
11957;SDS011;6039;52.576;13.348;2023-11-19T22:04:27;11.60;;;3.97;;
11957;SDS011;6039;52.576;13.348;2023-11-19T22:09:34;8.73;;;3.23;;
11957;SDS011;6039;52.576;13.348;2023-11-19T22:14:38;7.83;;;3.03;;
11957;SDS011;6039;52.576;13.348;2023-11-19T22:19:42;9.47;;;3.20;;
11957;SDS011;6039;52.576;13.348;2023-11-19T22:24:49;11.60;;;3.50;;
11957;SDS011;6039;52.576;13.348;2023-11-19T22:29:53;11.50;;;3.00;;
11957;SDS011;6039;52.576;13.348;2023-11-19T22:34:57;6.87;;;2.80;;
11957;SDS011;6039;52.576;13.348;2023-11-19T22:40:04;8.80;;;3.00;;
11957;SDS011;6039;52.576;13.348;2023-11-19T22:45:09;9.13;;;3.87;;
11957;SDS011;6039;52.576;13.348;2023-11-19T22:50:13;9.80;;;3.67;;
11957;SDS011;6039;52.576;13.348;2023-11-19T22:55:20;8.03;;;3.30;;
11957;SDS011;6039;52.576;13.348;2023-11-19T23:00:24;15.37;;;3.63;;
11957;SDS011;6039;52.576;13.348;2023-11-19T23:05:30;12.17;;;3.40;;
11957;SDS011;6039;52.576;13.348;2023-11-19T23:10:38;12.47;;;3.43;;
11957;SDS011;6039;52.576;13.348;2023-11-19T23:15:42;7.97;;;3.00;;
11957;SDS011;6039;52.576;13.348;2023-11-19T23:20:46;8.87;;;3.47;;
11957;SDS011;6039;52.576;13.348;2023-11-19T23:25:53;7.80;;;3.43;;
11957;SDS011;6039;52.576;13.348;2023-11-19T23:30:57;9.13;;;3.67;;
11957;SDS011;6039;52.576;13.348;2023-11-19T23:36:01;7.40;;;3.60;;
11957;SDS011;6039;52.576;13.348;2023-11-19T23:41:09;8.83;;;3.23;;
11957;SDS011;6039;52.576;13.348;2023-11-19T23:46:12;10.00;;;3.53;;
11957;SDS011;6039;52.576;13.348;2023-11-19T23:51:16;9.10;;;3.63;;
11957;SDS011;6039;52.576;13.348;2023-11-19T23:56:23;7.60;;;3.33;;
